Windsor Castle, Pennsylvania
Current Conditions -  °F | °C
As of 10:54 AM on Friday 28 Nov 2014 (Local Time) from KRDG Reporting Station
Broken Clouds Broken Clouds  
Wind Chill: 25°   Ceiling: 6500
Heat Index: 34°   Visibility: 10mi
Dew Point: 17°   Wind: 14mph
Humidity: 50%   Direction: 330°NNW
Pressure: 30.24"   Gusts: NA
Location:  40.5494°N, 75.999°W
Report Text: KRDG 281554Z 33012KT 10SM FEW038 BKN065 01/M08 A3024 RMK AO2 SLP249 T00111083
Loading
Personal Weather Stations






























Interactive Weather Map New forecast layout! Learn more

10-Day Weather Forecast

Advertisements
Track Severe Weather on mobile